createdAt,value
2022-10-01T00:03:38.989Z,90.80
2022-10-01T00:07:20.669Z,90.70
2022-10-01T00:11:16.867Z,90.70
2022-10-01T00:15:01.017Z,90.70
2022-10-01T00:18:45.737Z,90.50
2022-10-01T00:22:27.666Z,90.50
2022-10-01T00:26:17.478Z,90.30
2022-10-01T00:29:59.250Z,90.50
2022-10-01T00:33:40.923Z,90.40
2022-10-01T00:37:22.605Z,90.80
2022-10-01T00:41:05.858Z,90.60
2022-10-01T00:44:47.604Z,90.70
2022-10-01T00:48:29.862Z,90.70
2022-10-01T00:52:15.097Z,90.80
2022-10-01T00:55:57.336Z,90.80
2022-10-01T00:59:39.053Z,90.90
2022-10-01T01:03:20.785Z,90.90
2022-10-01T01:07:02.999Z,91.00
2022-10-01T01:10:55.841Z,91.00
2022-10-01T01:15:07.642Z,91.10
2022-10-01T01:18:54.453Z,91.30
2022-10-01T01:22:37.705Z,91.20
2022-10-01T01:26:54.951Z,91.20
2022-10-01T01:30:38.983Z,91.40
2022-10-01T01:34:23.594Z,91.10
2022-10-01T01:38:10.856Z,91.10
2022-10-01T01:41:55.374Z,91.00
2022-10-01T01:45:38.330Z,90.90
2022-10-01T01:49:20.967Z,90.70
2022-10-01T01:53:03.014Z,90.60
2022-10-01T01:56:44.707Z,90.50
2022-10-01T02:00:26.618Z,90.40
2022-10-01T02:04:24.120Z,90.40
2022-10-01T02:08:12.705Z,90.40
2022-10-01T02:12:17.627Z,90.30
2022-10-01T02:16:21.057Z,90.50
2022-10-01T02:20:07.497Z,90.50
2022-10-01T02:24:00.313Z,90.50
2022-10-01T02:28:00.975Z,90.70
2022-10-01T02:31:43.111Z,90.70
2022-10-01T02:35:24.937Z,90.60
2022-10-01T02:39:06.623Z,90.50
2022-10-01T02:42:53.733Z,90.50
2022-10-01T02:47:21.723Z,90.60
2022-10-01T02:51:59.126Z,90.60
2022-10-01T02:55:40.802Z,90.50
2022-10-01T02:59:22.651Z,90.50
2022-10-01T03:03:04.666Z,90.60
2022-10-01T03:06:46.419Z,90.60
2022-10-01T03:10:28.250Z,90.50
2022-10-01T03:14:10.958Z,90.50
2022-10-01T03:17:52.884Z,90.50
2022-10-01T03:21:35.340Z,90.60
2022-10-01T03:25:17.412Z,90.60
2022-10-01T03:28:59.086Z,90.50
2022-10-01T03:32:40.930Z,90.50
2022-10-01T03:36:22.609Z,90.50
2022-10-01T03:40:04.894Z,90.40
2022-10-01T03:43:46.581Z,90.50
2022-10-01T03:47:28.332Z,90.40
2022-10-01T03:51:10.237Z,90.30
2022-10-01T03:54:51.949Z,90.30
2022-10-01T03:58:33.872Z,90.20
2022-10-01T04:02:16.951Z,90.10
2022-10-01T04:05:58.794Z,90.10
2022-10-01T04:09:40.449Z,90.10
2022-10-01T04:13:22.165Z,90.00
2022-10-01T04:17:03.845Z,90.10
2022-10-01T04:20:45.830Z,90.20
2022-10-01T04:24:27.495Z,90.10
2022-10-01T04:28:11.539Z,90.20
2022-10-01T04:31:54.404Z,90.20
2022-10-01T04:35:37.050Z,90.30
2022-10-01T04:39:18.743Z,90.10
2022-10-01T04:43:01.619Z,90.20
2022-10-01T04:46:43.708Z,90.10
2022-10-01T04:50:26.108Z,89.90
2022-10-01T04:54:07.851Z,89.80
2022-10-01T04:57:49.689Z,89.80
2022-10-01T05:01:32.593Z,89.70
2022-10-01T05:05:15.175Z,89.70
2022-10-01T05:08:56.840Z,90.00
2022-10-01T05:12:38.526Z,90.20
2022-10-01T05:16:20.314Z,90.00
2022-10-01T05:20:03.818Z,90.10
2022-10-01T05:23:45.511Z,90.10
2022-10-01T05:27:27.782Z,90.20
2022-10-01T05:31:09.697Z,90.30
2022-10-01T05:34:53.730Z,90.30
2022-10-01T05:38:37.180Z,90.30
2022-10-01T05:42:18.963Z,90.30
2022-10-01T05:46:01.932Z,90.30
2022-10-01T05:49:43.829Z,90.30
2022-10-01T05:53:26.057Z,90.20
2022-10-01T05:57:08.053Z,90.20
2022-10-01T06:00:49.798Z,90.40
2022-10-01T06:04:31.531Z,90.10
2022-10-01T06:08:13.339Z,90.10
2022-10-01T06:11:55.248Z,90.00
2022-10-01T06:15:38.504Z,90.00
2022-10-01T06:19:20.198Z,89.90
2022-10-01T06:23:05.812Z,90.00
2022-10-01T06:26:49.002Z,90.10
2022-10-01T06:30:34.142Z,89.80
2022-10-01T06:34:15.822Z,90.10
2022-10-01T06:37:57.889Z,90.10
2022-10-01T06:41:40.824Z,89.90
2022-10-01T06:45:23.326Z,89.90
2022-10-01T06:49:05.022Z,90.00
2022-10-01T06:52:50.023Z,90.00
2022-10-01T06:56:31.698Z,90.00
2022-10-01T07:00:14.374Z,90.00
2022-10-01T07:03:56.063Z,90.00
2022-10-01T07:07:37.978Z,90.10
2022-10-01T07:11:20.055Z,90.10
2022-10-01T07:15:01.951Z,89.80
2022-10-01T07:18:43.647Z,89.90
2022-10-01T07:22:25.419Z,90.20
2022-10-01T07:26:09.147Z,89.90
2022-10-01T07:29:50.837Z,89.70
2022-10-01T07:33:32.648Z,90.00
2022-10-01T07:37:14.593Z,89.80
2022-10-01T07:40:56.409Z,89.80
2022-10-01T07:44:38.113Z,89.70
2022-10-01T07:48:19.789Z,89.60
2022-10-01T07:52:02.025Z,89.50
2022-10-01T07:55:44.987Z,89.30
2022-10-01T07:59:27.250Z,89.10
2022-10-01T08:03:12.165Z,88.70
2022-10-01T08:06:54.285Z,88.40
2022-10-01T08:10:37.768Z,88.00
2022-10-01T08:14:20.161Z,87.70
2022-10-01T08:18:03.166Z,88.30
2022-10-01T08:21:45.071Z,88.50
2022-10-01T08:25:26.762Z,88.70
2022-10-01T08:29:08.445Z,88.20
2022-10-01T08:32:54.600Z,88.00
2022-10-01T08:36:37.766Z,88.00
2022-10-01T08:40:19.780Z,87.50
2022-10-01T08:44:02.547Z,87.60
2022-10-01T08:47:49.381Z,87.60
2022-10-01T08:51:47.178Z,87.40
2022-10-01T08:55:31.827Z,87.20
2022-10-01T08:59:27.216Z,86.90
2022-10-01T09:03:12.371Z,86.80
2022-10-01T09:07:03.286Z,86.30
2022-10-01T09:10:46.878Z,86.00
2022-10-01T09:14:55.682Z,86.30
2022-10-01T09:18:55.982Z,86.10
2022-10-01T09:23:08.819Z,85.50
2022-10-01T09:26:50.612Z,85.20
2022-10-01T09:30:32.601Z,85.40
2022-10-01T09:34:19.702Z,85.10
2022-10-01T09:38:04.125Z,85.10
2022-10-01T09:41:46.299Z,84.90
2022-10-01T09:45:28.697Z,84.70
2022-10-01T09:49:22.232Z,84.00
2022-10-01T09:53:04.267Z,83.90
2022-10-01T09:56:53.668Z,83.60
2022-10-01T10:00:36.069Z,83.20
2022-10-01T10:04:23.259Z,83.80
2022-10-01T10:08:24.732Z,82.90
2022-10-01T10:12:10.460Z,82.90
2022-10-01T10:15:56.334Z,83.00
2022-10-01T10:19:38.127Z,82.10
2022-10-01T10:23:21.496Z,81.80
2022-10-01T10:27:05.226Z,82.10
2022-10-01T10:30:47.302Z,81.50
2022-10-01T10:34:41.199Z,80.80
2022-10-01T10:38:22.910Z,80.00
2022-10-01T10:42:05.659Z,80.70
2022-10-01T10:45:47.497Z,81.20
2022-10-01T10:49:53.469Z,81.60
2022-10-01T10:53:45.382Z,79.20
2022-10-01T10:57:34.276Z,80.20
2022-10-01T11:01:19.596Z,80.20
2022-10-01T11:05:12.394Z,80.40
2022-10-01T11:09:04.834Z,80.00
2022-10-01T11:13:25.193Z,78.90
2022-10-01T11:17:21.820Z,78.80
2022-10-01T11:21:18.763Z,79.70
2022-10-01T11:25:15.663Z,79.50
2022-10-01T11:29:11.941Z,80.20
2022-10-01T11:33:05.937Z,79.90
2022-10-01T11:37:10.828Z,78.60
2022-10-01T11:41:13.422Z,78.10
2022-10-01T11:45:04.632Z,77.00
2022-10-01T11:48:57.347Z,77.70
2022-10-01T11:52:39.168Z,77.10
2022-10-01T11:56:44.584Z,78.30
2022-10-01T12:00:27.427Z,77.20
2022-10-01T12:04:16.609Z,77.40
2022-10-01T12:08:20.959Z,77.30
2022-10-01T12:12:15.554Z,77.30
2022-10-01T12:16:19.041Z,77.10
2022-10-01T12:20:01.456Z,77.60
2022-10-01T12:23:56.306Z,77.50
2022-10-01T12:27:48.548Z,76.50
2022-10-01T12:31:57.344Z,76.10
2022-10-01T12:35:57.495Z,75.60
2022-10-01T12:39:56.524Z,76.00
2022-10-01T12:44:07.413Z,76.90
2022-10-01T12:48:16.419Z,76.60
2022-10-01T12:52:04.095Z,75.20
2022-10-01T12:55:54.874Z,73.90
2022-10-01T12:59:43.108Z,73.00
2022-10-01T13:03:46.837Z,71.50
2022-10-01T13:07:40.366Z,71.70
2022-10-01T13:11:36.383Z,71.20
2022-10-01T13:15:21.251Z,71.50
2022-10-01T13:19:14.721Z,70.10
2022-10-01T13:23:12.628Z,69.90
2022-10-01T13:26:58.986Z,66.90
2022-10-01T13:30:59.003Z,68.30
2022-10-01T13:34:42.124Z,66.80
2022-10-01T13:38:39.629Z,69.50
2022-10-01T13:42:46.065Z,69.10
2022-10-01T13:46:33.068Z,68.20
2022-10-01T13:50:23.960Z,68.10
2022-10-01T13:54:09.002Z,68.70
2022-10-01T13:57:50.693Z,68.40
2022-10-01T14:01:42.316Z,68.40
2022-10-01T14:05:35.354Z,67.90
2022-10-01T14:09:23.307Z,66.70
2022-10-01T14:13:23.398Z,65.90
2022-10-01T14:17:05.643Z,67.20
2022-10-01T14:20:53.399Z,67.10
2022-10-01T14:25:07.120Z,67.00
2022-10-01T14:29:14.766Z,67.00
2022-10-01T14:33:08.826Z,66.40
2022-10-01T14:36:51.979Z,67.30
2022-10-01T14:40:41.834Z,68.20
2022-10-01T14:44:26.605Z,68.10
2022-10-01T14:48:10.019Z,66.80
2022-10-01T14:52:05.816Z,66.70
2022-10-01T14:55:47.936Z,64.90
2022-10-01T14:59:37.254Z,66.50
2022-10-01T15:03:18.971Z,65.90
2022-10-01T15:07:04.841Z,66.30
2022-10-01T15:10:57.694Z,65.90
2022-10-01T15:14:39.505Z,66.30
2022-10-01T15:18:21.344Z,66.50
2022-10-01T15:22:03.354Z,66.50
2022-10-01T15:25:45.034Z,66.50
2022-10-01T15:29:26.920Z,66.50
2022-10-01T15:33:20.853Z,67.10
2022-10-01T15:37:02.563Z,66.70
2022-10-01T15:40:44.249Z,66.90
2022-10-01T15:44:45.908Z,67.20
2022-10-01T15:48:29.970Z,67.20
2022-10-01T15:52:31.861Z,68.20
2022-10-01T15:56:18.018Z,68.30
2022-10-01T16:00:00.271Z,69.10
2022-10-01T16:03:57.267Z,69.40
2022-10-01T16:07:40.210Z,68.30
2022-10-01T16:11:31.684Z,69.50
2022-10-01T16:15:27.349Z,69.70
2022-10-01T16:19:29.807Z,69.20
2022-10-01T16:23:36.533Z,69.10
2022-10-01T16:27:25.986Z,69.30
2022-10-01T16:31:07.743Z,69.90
2022-10-01T16:34:49.579Z,70.20
2022-10-01T16:38:31.742Z,70.40
2022-10-01T16:42:24.463Z,70.70
2022-10-01T16:46:06.552Z,70.10
2022-10-01T16:49:48.453Z,70.70
2022-10-01T16:53:30.178Z,71.00
2022-10-01T16:57:11.848Z,71.10
2022-10-01T17:00:53.621Z,71.40
2022-10-01T17:04:35.396Z,71.80
2022-10-01T17:08:17.165Z,72.00
2022-10-01T17:11:58.879Z,71.80
2022-10-01T17:15:40.894Z,72.00
2022-10-01T17:19:23.121Z,72.20
2022-10-01T17:23:05.248Z,71.90
2022-10-01T17:26:47.098Z,72.40
2022-10-01T17:30:29.763Z,72.70
2022-10-01T17:34:11.773Z,73.30
2022-10-01T17:37:53.476Z,73.40
2022-10-01T17:41:35.537Z,73.70
2022-10-01T17:45:17.367Z,74.10
2022-10-01T17:48:59.074Z,74.30
2022-10-01T17:52:40.983Z,74.30
2022-10-01T17:56:22.747Z,74.80
2022-10-01T18:00:04.972Z,75.80
2022-10-01T18:03:46.755Z,75.50
2022-10-01T18:07:28.482Z,75.70
2022-10-01T18:11:10.858Z,75.90
2022-10-01T18:14:52.557Z,76.30
2022-10-01T18:22:37.970Z,76.70
2022-10-01T18:26:19.710Z,76.40
2022-10-01T18:30:01.657Z,76.50
2022-10-01T18:33:52.331Z,76.90
2022-10-01T18:37:37.627Z,77.20
2022-10-01T18:41:26.742Z,77.10
2022-10-01T18:45:14.466Z,77.50
2022-10-01T18:49:13.633Z,77.80
2022-10-01T18:52:55.426Z,77.90
2022-10-01T18:56:38.823Z,77.90
2022-10-01T19:00:24.228Z,78.10
2022-10-01T19:04:33.870Z,78.50
2022-10-01T19:08:56.559Z,78.70
2022-10-01T19:12:50.531Z,79.00
2022-10-01T19:16:35.230Z,79.20
2022-10-01T19:20:21.090Z,79.10
2022-10-01T19:24:12.321Z,79.80
2022-10-01T19:28:26.707Z,80.00
2022-10-01T19:32:15.578Z,80.20
2022-10-01T19:35:58.186Z,80.50
2022-10-01T19:39:40.090Z,80.30
2022-10-01T19:43:21.759Z,80.60
2022-10-01T19:47:26.716Z,80.70
2022-10-01T19:51:12.360Z,81.30
2022-10-01T19:54:56.373Z,81.10
2022-10-01T19:58:38.063Z,81.20
2022-10-01T20:02:32.374Z,81.20
2022-10-01T20:06:21.175Z,81.80
2022-10-01T20:10:07.379Z,81.80
2022-10-01T20:14:39.031Z,81.90
2022-10-01T20:18:49.468Z,82.60
2022-10-01T20:22:34.039Z,82.80
2022-10-01T20:26:37.922Z,83.00
2022-10-01T20:30:20.337Z,83.50
2022-10-01T20:34:13.926Z,81.60
2022-10-01T20:38:15.163Z,83.30
2022-10-01T20:41:57.065Z,83.90
2022-10-01T20:45:39.235Z,83.70
2022-10-01T20:49:40.465Z,84.00
2022-10-01T20:53:47.006Z,84.70
2022-10-01T20:57:46.239Z,84.40
2022-10-01T21:01:30.191Z,84.50
2022-10-01T21:05:24.884Z,84.10
2022-10-01T21:09:19.626Z,84.20
2022-10-01T21:13:13.986Z,84.50
2022-10-01T21:17:02.002Z,84.70
2022-10-01T21:20:53.670Z,84.50
2022-10-01T21:24:56.917Z,85.10
2022-10-01T21:29:09.486Z,84.80
2022-10-01T21:33:26.586Z,85.20
2022-10-01T21:37:16.352Z,85.10
2022-10-01T21:41:33.407Z,85.60
2022-10-01T21:45:33.276Z,85.80
2022-10-01T21:49:25.847Z,86.00
2022-10-01T21:53:10.724Z,86.20
2022-10-01T21:57:02.537Z,86.30
2022-10-01T22:00:53.456Z,86.80
2022-10-01T22:04:39.354Z,86.70
2022-10-01T22:08:27.382Z,86.70
2022-10-01T22:12:09.174Z,86.70
2022-10-01T22:15:54.477Z,86.60
2022-10-01T22:19:40.165Z,86.70
2022-10-01T22:23:21.830Z,87.00
2022-10-01T22:27:11.548Z,86.70
2022-10-01T22:30:53.762Z,87.20
2022-10-01T22:34:38.047Z,86.70
2022-10-01T22:38:44.624Z,86.90
2022-10-01T22:42:30.389Z,87.40
2022-10-01T22:46:30.162Z,86.60
2022-10-01T22:50:12.053Z,87.10
2022-10-01T22:54:31.231Z,86.60
2022-10-01T22:58:48.885Z,86.90
2022-10-01T23:02:38.676Z,86.60
2022-10-01T23:06:48.803Z,86.90
2022-10-01T23:10:50.891Z,86.90
2022-10-01T23:15:37.299Z,87.10
2022-10-01T23:19:28.344Z,86.60
2022-10-01T23:23:22.002Z,86.90
2022-10-01T23:27:36.078Z,87.10
2022-10-01T23:31:33.144Z,87.00
2022-10-01T23:35:20.047Z,87.10
2022-10-01T23:39:30.877Z,87.20
2022-10-01T23:43:22.062Z,87.20
2022-10-01T23:47:06.663Z,87.00
2022-10-01T23:51:40.951Z,87.10
2022-10-01T23:56:07.882Z,87.50
